sensor_id;sensor_type;location;lat;lon;timestamp;temperature;humidity
20335;DHT22;10325;51.468;5.804;2023-04-25T00:01:41;17.60;60.70
20335;DHT22;10325;51.468;5.804;2023-04-25T00:04:13;17.50;60.60
20335;DHT22;10325;51.468;5.804;2023-04-25T00:06:43;17.50;60.70
20335;DHT22;10325;51.468;5.804;2023-04-25T00:09:18;17.50;60.60
20335;DHT22;10325;51.468;5.804;2023-04-25T00:11:46;17.50;60.60
20335;DHT22;10325;51.468;5.804;2023-04-25T00:14:15;17.50;60.60
20335;DHT22;10325;51.468;5.804;2023-04-25T00:16:47;17.50;60.60
20335;DHT22;10325;51.468;5.804;2023-04-25T00:19:19;17.50;60.70
20335;DHT22;10325;51.468;5.804;2023-04-25T00:21:48;17.50;60.60
20335;DHT22;10325;51.468;5.804;2023-04-25T00:24:17;17.50;60.60
20335;DHT22;10325;51.468;5.804;2023-04-25T00:26:47;17.50;60.60
20335;DHT22;10325;51.468;5.804;2023-04-25T00:29:17;17.50;60.60
20335;DHT22;10325;51.468;5.804;2023-04-25T00:31:46;17.50;60.60
20335;DHT22;10325;51.468;5.804;2023-04-25T00:34:17;17.50;60.60
20335;DHT22;10325;51.468;5.804;2023-04-25T00:36:48;17.50;60.60
20335;DHT22;10325;51.468;5.804;2023-04-25T00:39:20;17.50;60.60
20335;DHT22;10325;51.468;5.804;2023-04-25T00:41:48;17.50;60.60
20335;DHT22;10325;51.468;5.804;2023-04-25T00:44:16;17.50;60.60
20335;DHT22;10325;51.468;5.804;2023-04-25T00:46:46;17.50;60.60
20335;DHT22;10325;51.468;5.804;2023-04-25T00:49:16;17.40;60.50
20335;DHT22;10325;51.468;5.804;2023-04-25T00:51:46;17.40;60.50
20335;DHT22;10325;51.468;5.804;2023-04-25T00:54:16;17.50;60.50
20335;DHT22;10325;51.468;5.804;2023-04-25T00:56:44;17.40;60.60
20335;DHT22;10325;51.468;5.804;2023-04-25T00:59:17;17.40;60.50
20335;DHT22;10325;51.468;5.804;2023-04-25T01:01:49;17.40;60.50
20335;DHT22;10325;51.468;5.804;2023-04-25T01:04:21;17.40;60.50
20335;DHT22;10325;51.468;5.804;2023-04-25T01:07:03;17.40;60.50
20335;DHT22;10325;51.468;5.804;2023-04-25T01:09:35;17.40;60.50
20335;DHT22;10325;51.468;5.804;2023-04-25T01:12:04;17.40;60.60
20335;DHT22;10325;51.468;5.804;2023-04-25T01:14:36;17.40;60.50
20335;DHT22;10325;51.468;5.804;2023-04-25T01:17:07;17.40;60.60
20335;DHT22;10325;51.468;5.804;2023-04-25T01:19:37;17.40;60.50
20335;DHT22;10325;51.468;5.804;2023-04-25T01:22:06;17.40;60.60
20335;DHT22;10325;51.468;5.804;2023-04-25T01:24:36;17.40;60.60
20335;DHT22;10325;51.468;5.804;2023-04-25T01:27:05;17.30;60.50
20335;DHT22;10325;51.468;5.804;2023-04-25T01:29:39;17.40;60.60
20335;DHT22;10325;51.468;5.804;2023-04-25T01:32:10;17.40;60.60
20335;DHT22;10325;51.468;5.804;2023-04-25T01:34:43;17.40;60.60
20335;DHT22;10325;51.468;5.804;2023-04-25T01:37:10;17.40;60.60
20335;DHT22;10325;51.468;5.804;2023-04-25T01:39:40;17.30;60.50
20335;DHT22;10325;51.468;5.804;2023-04-25T01:42:08;17.40;60.60
20335;DHT22;10325;51.468;5.804;2023-04-25T01:44:36;17.40;60.50
20335;DHT22;10325;51.468;5.804;2023-04-25T01:47:04;17.40;60.60
20335;DHT22;10325;51.468;5.804;2023-04-25T01:49:39;17.30;60.50
20335;DHT22;10325;51.468;5.804;2023-04-25T01:52:10;17.30;60.50
20335;DHT22;10325;51.468;5.804;2023-04-25T01:54:42;17.30;60.50
20335;DHT22;10325;51.468;5.804;2023-04-25T01:57:29;17.30;60.50
20335;DHT22;10325;51.468;5.804;2023-04-25T02:00:05;17.30;60.50
20335;DHT22;10325;51.468;5.804;2023-04-25T02:02:41;17.30;60.50
20335;DHT22;10325;51.468;5.804;2023-04-25T02:05:12;17.30;60.50
20335;DHT22;10325;51.468;5.804;2023-04-25T02:07:42;17.30;60.50
20335;DHT22;10325;51.468;5.804;2023-04-25T02:10:26;17.30;60.60
20335;DHT22;10325;51.468;5.804;2023-04-25T02:12:57;17.30;60.60
20335;DHT22;10325;51.468;5.804;2023-04-25T02:15:27;17.30;60.60
20335;DHT22;10325;51.468;5.804;2023-04-25T02:17:58;17.30;60.60
20335;DHT22;10325;51.468;5.804;2023-04-25T02:20:30;17.30;60.60
20335;DHT22;10325;51.468;5.804;2023-04-25T02:23:03;17.20;60.50
20335;DHT22;10325;51.468;5.804;2023-04-25T02:25:33;17.30;60.60
20335;DHT22;10325;51.468;5.804;2023-04-25T02:28:07;17.30;60.60
20335;DHT22;10325;51.468;5.804;2023-04-25T02:30:37;17.30;60.60
20335;DHT22;10325;51.468;5.804;2023-04-25T02:33:07;17.20;60.50
20335;DHT22;10325;51.468;5.804;2023-04-25T02:35:38;17.30;60.50
20335;DHT22;10325;51.468;5.804;2023-04-25T02:38:08;17.30;60.50
20335;DHT22;10325;51.468;5.804;2023-04-25T02:40:35;17.30;60.60
20335;DHT22;10325;51.468;5.804;2023-04-25T02:43:03;17.30;60.50
20335;DHT22;10325;51.468;5.804;2023-04-25T02:45:33;17.30;60.50
20335;DHT22;10325;51.468;5.804;2023-04-25T02:48:05;17.20;60.50
20335;DHT22;10325;51.468;5.804;2023-04-25T02:50:34;17.20;60.50
20335;DHT22;10325;51.468;5.804;2023-04-25T02:53:03;17.20;60.40
20335;DHT22;10325;51.468;5.804;2023-04-25T02:55:48;17.20;60.50
20335;DHT22;10325;51.468;5.804;2023-04-25T02:58:19;17.20;60.50
20335;DHT22;10325;51.468;5.804;2023-04-25T03:00:52;17.20;60.50
20335;DHT22;10325;51.468;5.804;2023-04-25T03:03:20;17.20;60.50
20335;DHT22;10325;51.468;5.804;2023-04-25T03:05:55;17.20;60.50
20335;DHT22;10325;51.468;5.804;2023-04-25T03:08:24;17.20;60.50
20335;DHT22;10325;51.468;5.804;2023-04-25T03:10:54;17.20;60.50
20335;DHT22;10325;51.468;5.804;2023-04-25T03:13:25;17.20;60.50
20335;DHT22;10325;51.468;5.804;2023-04-25T03:15:57;17.20;60.50
20335;DHT22;10325;51.468;5.804;2023-04-25T03:18:26;17.20;60.50
20335;DHT22;10325;51.468;5.804;2023-04-25T03:20:57;17.20;60.50
20335;DHT22;10325;51.468;5.804;2023-04-25T03:23:26;17.20;60.50
20335;DHT22;10325;51.468;5.804;2023-04-25T03:25:55;17.20;60.50
20335;DHT22;10325;51.468;5.804;2023-04-25T03:28:27;17.10;60.40
20335;DHT22;10325;51.468;5.804;2023-04-25T03:30:56;17.20;60.50
20335;DHT22;10325;51.468;5.804;2023-04-25T03:33:27;17.20;60.50
20335;DHT22;10325;51.468;5.804;2023-04-25T03:35:55;17.10;60.40
20335;DHT22;10325;51.468;5.804;2023-04-25T03:38:25;17.10;60.40
20335;DHT22;10325;51.468;5.804;2023-04-25T03:41:07;17.10;60.40
20335;DHT22;10325;51.468;5.804;2023-04-25T03:43:40;17.10;60.40
20335;DHT22;10325;51.468;5.804;2023-04-25T03:46:10;17.10;60.40
20335;DHT22;10325;51.468;5.804;2023-04-25T03:48:42;17.10;60.50
20335;DHT22;10325;51.468;5.804;2023-04-25T03:51:11;17.10;60.50
20335;DHT22;10325;51.468;5.804;2023-04-25T03:53:40;17.10;60.40
20335;DHT22;10325;51.468;5.804;2023-04-25T03:56:10;17.10;60.40
20335;DHT22;10325;51.468;5.804;2023-04-25T03:58:52;17.10;60.40
20335;DHT22;10325;51.468;5.804;2023-04-25T04:01:22;17.10;60.40
20335;DHT22;10325;51.468;5.804;2023-04-25T04:03:57;17.10;60.50
20335;DHT22;10325;51.468;5.804;2023-04-25T04:06:31;17.10;60.50
20335;DHT22;10325;51.468;5.804;2023-04-25T04:09:02;17.10;60.50
20335;DHT22;10325;51.468;5.804;2023-04-25T04:11:34;17.10;60.50
20335;DHT22;10325;51.468;5.804;2023-04-25T04:14:07;17.00;60.40
20335;DHT22;10325;51.468;5.804;2023-04-25T04:16:44;17.10;60.40
20335;DHT22;10325;51.468;5.804;2023-04-25T04:19:12;17.10;60.50
20335;DHT22;10325;51.468;5.804;2023-04-25T04:21:41;17.00;60.50
20335;DHT22;10325;51.468;5.804;2023-04-25T04:24:09;17.10;60.50
20335;DHT22;10325;51.468;5.804;2023-04-25T04:26:38;17.10;60.60
20335;DHT22;10325;51.468;5.804;2023-04-25T04:29:10;17.00;60.40
20335;DHT22;10325;51.468;5.804;2023-04-25T04:31:43;17.00;60.50
20335;DHT22;10325;51.468;5.804;2023-04-25T04:34:12;17.00;60.40
20335;DHT22;10325;51.468;5.804;2023-04-25T04:36:39;17.00;60.40
20335;DHT22;10325;51.468;5.804;2023-04-25T04:39:08;17.10;60.40
20335;DHT22;10325;51.468;5.804;2023-04-25T04:41:51;17.10;60.40
20335;DHT22;10325;51.468;5.804;2023-04-25T04:44:22;17.00;60.40
20335;DHT22;10325;51.468;5.804;2023-04-25T04:46:53;17.00;60.40
20335;DHT22;10325;51.468;5.804;2023-04-25T04:49:23;17.00;60.40
20335;DHT22;10325;51.468;5.804;2023-04-25T04:51:54;17.00;60.40
20335;DHT22;10325;51.468;5.804;2023-04-25T04:54:28;17.00;60.30
20335;DHT22;10325;51.468;5.804;2023-04-25T04:56:58;17.00;60.30
20335;DHT22;10325;51.468;5.804;2023-04-25T04:59:29;17.00;60.30
20335;DHT22;10325;51.468;5.804;2023-04-25T05:01:59;17.00;60.30
20335;DHT22;10325;51.468;5.804;2023-04-25T05:04:30;17.00;60.90
20335;DHT22;10325;51.468;5.804;2023-04-25T05:07:00;17.00;60.20
20335;DHT22;10325;51.468;5.804;2023-04-25T05:09:33;17.00;60.20
20335;DHT22;10325;51.468;5.804;2023-04-25T05:12:04;17.00;60.20
20335;DHT22;10325;51.468;5.804;2023-04-25T05:14:32;17.00;60.20
20335;DHT22;10325;51.468;5.804;2023-04-25T05:17:03;17.00;60.20
20335;DHT22;10325;51.468;5.804;2023-04-25T05:19:34;17.00;60.20
20335;DHT22;10325;51.468;5.804;2023-04-25T05:22:07;16.90;60.10
20335;DHT22;10325;51.468;5.804;2023-04-25T05:24:38;17.00;60.10
20335;DHT22;10325;51.468;5.804;2023-04-25T05:27:09;17.00;60.10
20335;DHT22;10325;51.468;5.804;2023-04-25T05:29:38;17.00;60.10
20335;DHT22;10325;51.468;5.804;2023-04-25T05:32:07;16.90;60.00
20335;DHT22;10325;51.468;5.804;2023-04-25T05:34:40;16.90;60.00
20335;DHT22;10325;51.468;5.804;2023-04-25T05:37:11;16.90;60.00
20335;DHT22;10325;51.468;5.804;2023-04-25T05:39:40;17.00;60.00
20335;DHT22;10325;51.468;5.804;2023-04-25T05:42:12;16.90;59.90
20335;DHT22;10325;51.468;5.804;2023-04-25T05:44:44;17.00;59.90
20335;DHT22;10325;51.468;5.804;2023-04-25T05:47:12;17.00;59.90
20335;DHT22;10325;51.468;5.804;2023-04-25T05:49:43;17.00;59.90
20335;DHT22;10325;51.468;5.804;2023-04-25T05:52:15;17.00;59.90
20335;DHT22;10325;51.468;5.804;2023-04-25T05:54:45;17.00;59.80
20335;DHT22;10325;51.468;5.804;2023-04-25T05:57:25;17.00;59.80
20335;DHT22;10325;51.468;5.804;2023-04-25T05:59:56;17.00;59.90
20335;DHT22;10325;51.468;5.804;2023-04-25T06:02:28;17.00;59.90
20335;DHT22;10325;51.468;5.804;2023-04-25T06:05:00;17.00;59.90
20335;DHT22;10325;51.468;5.804;2023-04-25T06:07:36;17.00;59.70
20335;DHT22;10325;51.468;5.804;2023-04-25T06:10:08;17.00;59.60
20335;DHT22;10325;51.468;5.804;2023-04-25T06:12:44;17.00;59.50
20335;DHT22;10325;51.468;5.804;2023-04-25T06:15:16;17.00;59.50
20335;DHT22;10325;51.468;5.804;2023-04-25T06:17:50;17.00;59.50
20335;DHT22;10325;51.468;5.804;2023-04-25T06:20:20;17.00;59.40
20335;DHT22;10325;51.468;5.804;2023-04-25T06:22:54;17.00;59.40
20335;DHT22;10325;51.468;5.804;2023-04-25T06:25:24;17.00;59.30
20335;DHT22;10325;51.468;5.804;2023-04-25T06:28:01;17.00;59.80
20335;DHT22;10325;51.468;5.804;2023-04-25T06:30:31;17.00;59.10
20335;DHT22;10325;51.468;5.804;2023-04-25T06:33:01;17.00;59.00
20335;DHT22;10325;51.468;5.804;2023-04-25T06:35:33;17.00;58.90
20335;DHT22;10325;51.468;5.804;2023-04-25T06:38:04;17.10;58.90
20335;DHT22;10325;51.468;5.804;2023-04-25T06:40:36;17.00;58.80
20335;DHT22;10325;51.468;5.804;2023-04-25T06:43:07;17.00;58.70
20335;DHT22;10325;51.468;5.804;2023-04-25T06:45:36;17.00;58.70
20335;DHT22;10325;51.468;5.804;2023-04-25T06:48:08;17.00;58.70
20335;DHT22;10325;51.468;5.804;2023-04-25T06:50:40;17.10;58.80
20335;DHT22;10325;51.468;5.804;2023-04-25T06:53:09;17.10;59.20
20335;DHT22;10325;51.468;5.804;2023-04-25T06:55:43;17.10;59.60
20335;DHT22;10325;51.468;5.804;2023-04-25T06:58:12;17.10;59.40
20335;DHT22;10325;51.468;5.804;2023-04-25T07:00:41;17.10;59.40
20335;DHT22;10325;51.468;5.804;2023-04-25T07:03:14;17.10;59.40
20335;DHT22;10325;51.468;5.804;2023-04-25T07:05:46;17.10;59.20
20335;DHT22;10325;51.468;5.804;2023-04-25T07:08:16;17.10;59.10
20335;DHT22;10325;51.468;5.804;2023-04-25T07:10:46;17.10;59.00
20335;DHT22;10325;51.468;5.804;2023-04-25T07:13:16;17.10;59.00
20335;DHT22;10325;51.468;5.804;2023-04-25T07:15:44;17.00;59.00
20335;DHT22;10325;51.468;5.804;2023-04-25T07:18:17;17.10;59.00
20335;DHT22;10325;51.468;5.804;2023-04-25T07:20:46;17.00;59.10
20335;DHT22;10325;51.468;5.804;2023-04-25T07:23:18;17.10;59.00
20335;DHT22;10325;51.468;5.804;2023-04-25T07:25:49;17.10;58.80
20335;DHT22;10325;51.468;5.804;2023-04-25T07:28:22;17.10;58.90
20335;DHT22;10325;51.468;5.804;2023-04-25T07:30:57;17.10;58.80
20335;DHT22;10325;51.468;5.804;2023-04-25T07:33:29;17.10;58.70
20335;DHT22;10325;51.468;5.804;2023-04-25T07:36:00;17.10;58.70
20335;DHT22;10325;51.468;5.804;2023-04-25T07:38:30;17.10;58.80
20335;DHT22;10325;51.468;5.804;2023-04-25T07:41:01;17.10;58.70
20335;DHT22;10325;51.468;5.804;2023-04-25T07:43:33;17.10;58.60
20335;DHT22;10325;51.468;5.804;2023-04-25T07:46:01;17.10;58.70
20335;DHT22;10325;51.468;5.804;2023-04-25T07:48:33;17.10;58.50
20335;DHT22;10325;51.468;5.804;2023-04-25T07:51:04;17.10;58.50
20335;DHT22;10325;51.468;5.804;2023-04-25T07:53:35;17.10;58.50
20335;DHT22;10325;51.468;5.804;2023-04-25T07:56:08;17.10;58.30
20335;DHT22;10325;51.468;5.804;2023-04-25T07:58:39;17.10;58.20
20335;DHT22;10325;51.468;5.804;2023-04-25T08:01:08;17.10;58.40
20335;DHT22;10325;51.468;5.804;2023-04-25T08:03:39;17.10;58.30
20335;DHT22;10325;51.468;5.804;2023-04-25T08:06:12;17.10;58.30
20335;DHT22;10325;51.468;5.804;2023-04-25T08:08:43;17.10;58.30
20335;DHT22;10325;51.468;5.804;2023-04-25T08:11:10;17.10;58.10
20335;DHT22;10325;51.468;5.804;2023-04-25T08:13:40;17.10;58.30
20335;DHT22;10325;51.468;5.804;2023-04-25T08:16:11;17.10;58.30
20335;DHT22;10325;51.468;5.804;2023-04-25T08:18:41;17.10;58.20
20335;DHT22;10325;51.468;5.804;2023-04-25T08:21:12;17.20;58.10
20335;DHT22;10325;51.468;5.804;2023-04-25T08:23:55;17.10;57.90
20335;DHT22;10325;51.468;5.804;2023-04-25T08:26:27;17.20;57.80
20335;DHT22;10325;51.468;5.804;2023-04-25T08:28:56;17.20;58.10
20335;DHT22;10325;51.468;5.804;2023-04-25T08:31:42;17.20;58.00
20335;DHT22;10325;51.468;5.804;2023-04-25T08:34:13;17.20;57.90
20335;DHT22;10325;51.468;5.804;2023-04-25T08:36:43;17.10;57.90
20335;DHT22;10325;51.468;5.804;2023-04-25T08:39:13;17.20;57.90
20335;DHT22;10325;51.468;5.804;2023-04-25T08:41:43;17.20;58.10
20335;DHT22;10325;51.468;5.804;2023-04-25T08:44:16;17.20;58.10
20335;DHT22;10325;51.468;5.804;2023-04-25T08:46:46;17.20;57.90
20335;DHT22;10325;51.468;5.804;2023-04-25T08:49:20;17.20;57.80
20335;DHT22;10325;51.468;5.804;2023-04-25T08:51:52;17.20;57.80
20335;DHT22;10325;51.468;5.804;2023-04-25T08:54:26;17.20;57.70
20335;DHT22;10325;51.468;5.804;2023-04-25T08:57:02;17.20;57.70
20335;DHT22;10325;51.468;5.804;2023-04-25T08:59:35;17.30;57.90
20335;DHT22;10325;51.468;5.804;2023-04-25T09:02:07;17.20;57.80
20335;DHT22;10325;51.468;5.804;2023-04-25T09:04:38;17.30;57.90
20335;DHT22;10325;51.468;5.804;2023-04-25T09:07:10;17.30;57.90
20335;DHT22;10325;51.468;5.804;2023-04-25T09:09:52;17.20;57.70
20335;DHT22;10325;51.468;5.804;2023-04-25T09:12:24;17.30;57.80
20335;DHT22;10325;51.468;5.804;2023-04-25T09:15:09;17.30;57.80
20335;DHT22;10325;51.468;5.804;2023-04-25T09:17:55;17.30;57.70
20335;DHT22;10325;51.468;5.804;2023-04-25T09:20:25;17.20;57.40
20335;DHT22;10325;51.468;5.804;2023-04-25T09:23:06;17.30;57.10
20335;DHT22;10325;51.468;5.804;2023-04-25T09:25:53;17.30;57.20
20335;DHT22;10325;51.468;5.804;2023-04-25T09:28:35;17.30;57.40
20335;DHT22;10325;51.468;5.804;2023-04-25T09:31:10;17.30;57.30
20335;DHT22;10325;51.468;5.804;2023-04-25T09:33:41;17.30;57.10
20335;DHT22;10325;51.468;5.804;2023-04-25T09:36:12;17.30;57.40
20335;DHT22;10325;51.468;5.804;2023-04-25T09:38:47;17.30;57.40
20335;DHT22;10325;51.468;5.804;2023-04-25T09:41:23;17.30;57.40
20335;DHT22;10325;51.468;5.804;2023-04-25T09:43:58;17.30;57.60
20335;DHT22;10325;51.468;5.804;2023-04-25T09:46:39;17.40;57.70
20335;DHT22;10325;51.468;5.804;2023-04-25T09:49:14;17.40;57.60
20335;DHT22;10325;51.468;5.804;2023-04-25T09:51:58;17.30;57.70
20335;DHT22;10325;51.468;5.804;2023-04-25T09:54:28;17.40;57.60
20335;DHT22;10325;51.468;5.804;2023-04-25T09:57:09;17.40;57.60
20335;DHT22;10325;51.468;5.804;2023-04-25T09:59:49;17.40;57.50
20335;DHT22;10325;51.468;5.804;2023-04-25T10:02:36;17.40;57.20
20335;DHT22;10325;51.468;5.804;2023-04-25T10:05:13;17.40;57.20
20335;DHT22;10325;51.468;5.804;2023-04-25T10:07:44;17.40;57.00
20335;DHT22;10325;51.468;5.804;2023-04-25T10:10:25;17.40;57.00
20335;DHT22;10325;51.468;5.804;2023-04-25T10:13:05;17.40;56.70
20335;DHT22;10325;51.468;5.804;2023-04-25T10:15:35;17.40;56.60
20335;DHT22;10325;51.468;5.804;2023-04-25T10:18:09;17.40;56.60
20335;DHT22;10325;51.468;5.804;2023-04-25T10:20:46;17.40;56.40
20335;DHT22;10325;51.468;5.804;2023-04-25T10:23:15;17.40;56.30
20335;DHT22;10325;51.468;5.804;2023-04-25T10:25:47;17.40;56.10
20335;DHT22;10325;51.468;5.804;2023-04-25T10:28:19;17.40;56.30
20335;DHT22;10325;51.468;5.804;2023-04-25T10:31:06;17.40;56.30
20335;DHT22;10325;51.468;5.804;2023-04-25T10:33:46;17.40;56.50
20335;DHT22;10325;51.468;5.804;2023-04-25T10:36:21;17.40;56.70
20335;DHT22;10325;51.468;5.804;2023-04-25T10:39:04;17.40;56.90
20335;DHT22;10325;51.468;5.804;2023-04-25T10:42:09;17.40;57.00
20335;DHT22;10325;51.468;5.804;2023-04-25T10:44:41;17.40;57.00
20335;DHT22;10325;51.468;5.804;2023-04-25T10:47:43;17.40;57.00
20335;DHT22;10325;51.468;5.804;2023-04-25T10:50:18;17.40;56.90
20335;DHT22;10325;51.468;5.804;2023-04-25T10:52:48;17.40;56.80
20335;DHT22;10325;51.468;5.804;2023-04-25T10:55:20;17.50;57.00
20335;DHT22;10325;51.468;5.804;2023-04-25T10:57:50;17.50;56.80
20335;DHT22;10325;51.468;5.804;2023-04-25T11:00:31;17.50;57.00
20335;DHT22;10325;51.468;5.804;2023-04-25T11:03:17;17.50;57.10
20335;DHT22;10325;51.468;5.804;2023-04-25T11:05:52;17.50;56.80
20335;DHT22;10325;51.468;5.804;2023-04-25T11:08:52;17.50;57.10
20335;DHT22;10325;51.468;5.804;2023-04-25T11:11:19;17.50;57.10
20335;DHT22;10325;51.468;5.804;2023-04-25T11:14:04;17.50;57.20
20335;DHT22;10325;51.468;5.804;2023-04-25T11:16:33;17.50;57.10
20335;DHT22;10325;51.468;5.804;2023-04-25T11:19:03;17.50;56.80
20335;DHT22;10325;51.468;5.804;2023-04-25T11:21:32;17.50;56.80
20335;DHT22;10325;51.468;5.804;2023-04-25T11:24:01;17.50;57.00
20335;DHT22;10325;51.468;5.804;2023-04-25T11:26:33;17.50;57.00
20335;DHT22;10325;51.468;5.804;2023-04-25T11:29:03;17.50;57.00
20335;DHT22;10325;51.468;5.804;2023-04-25T11:31:36;17.50;56.70
20335;DHT22;10325;51.468;5.804;2023-04-25T11:34:04;17.60;56.70
20335;DHT22;10325;51.468;5.804;2023-04-25T11:36:33;17.60;56.40
20335;DHT22;10325;51.468;5.804;2023-04-25T11:39:03;17.50;56.30
20335;DHT22;10325;51.468;5.804;2023-04-25T11:41:38;17.60;56.10
20335;DHT22;10325;51.468;5.804;2023-04-25T11:44:10;17.50;55.90
20335;DHT22;10325;51.468;5.804;2023-04-25T11:46:38;17.50;55.90
20335;DHT22;10325;51.468;5.804;2023-04-25T11:49:07;17.50;56.00
20335;DHT22;10325;51.468;5.804;2023-04-25T11:51:40;17.60;56.20
20335;DHT22;10325;51.468;5.804;2023-04-25T11:54:08;17.60;56.00
20335;DHT22;10325;51.468;5.804;2023-04-25T11:56:46;17.60;56.20
20335;DHT22;10325;51.468;5.804;2023-04-25T11:59:15;17.60;56.40
20335;DHT22;10325;51.468;5.804;2023-04-25T12:01:50;17.60;56.40
20335;DHT22;10325;51.468;5.804;2023-04-25T12:04:24;17.60;56.40
20335;DHT22;10325;51.468;5.804;2023-04-25T12:06:55;17.60;56.40
20335;DHT22;10325;51.468;5.804;2023-04-25T12:09:33;17.60;56.30
20335;DHT22;10325;51.468;5.804;2023-04-25T12:12:03;17.60;56.40
20335;DHT22;10325;51.468;5.804;2023-04-25T12:14:36;17.60;56.50
20335;DHT22;10325;51.468;5.804;2023-04-25T12:17:09;17.60;56.50
20335;DHT22;10325;51.468;5.804;2023-04-25T12:19:42;17.60;56.60
20335;DHT22;10325;51.468;5.804;2023-04-25T12:22:23;17.60;56.60
20335;DHT22;10325;51.468;5.804;2023-04-25T12:24:52;17.60;57.30
20335;DHT22;10325;51.468;5.804;2023-04-25T12:27:21;17.70;56.80
20335;DHT22;10325;51.468;5.804;2023-04-25T12:29:57;17.70;56.80
20335;DHT22;10325;51.468;5.804;2023-04-25T12:32:30;17.70;56.70
20335;DHT22;10325;51.468;5.804;2023-04-25T12:35:05;17.70;56.30
20335;DHT22;10325;51.468;5.804;2023-04-25T12:37:48;17.60;56.20
20335;DHT22;10325;51.468;5.804;2023-04-25T12:40:22;17.70;56.00
20335;DHT22;10325;51.468;5.804;2023-04-25T12:42:53;17.70;55.80
20335;DHT22;10325;51.468;5.804;2023-04-25T12:45:21;17.70;55.90
20335;DHT22;10325;51.468;5.804;2023-04-25T12:47:52;17.70;55.90
20335;DHT22;10325;51.468;5.804;2023-04-25T12:50:21;17.70;55.80
20335;DHT22;10325;51.468;5.804;2023-04-25T12:52:53;17.70;55.40
20335;DHT22;10325;51.468;5.804;2023-04-25T12:55:23;17.70;55.30
20335;DHT22;10325;51.468;5.804;2023-04-25T12:57:53;17.70;55.10
20335;DHT22;10325;51.468;5.804;2023-04-25T13:00:24;17.70;55.10
20335;DHT22;10325;51.468;5.804;2023-04-25T13:02:52;17.70;54.50
20335;DHT22;10325;51.468;5.804;2023-04-25T13:05:22;17.70;53.70
20335;DHT22;10325;51.468;5.804;2023-04-25T13:07:52;17.70;54.10
20335;DHT22;10325;51.468;5.804;2023-04-25T13:10:24;17.70;54.40
20335;DHT22;10325;51.468;5.804;2023-04-25T13:12:55;17.70;54.60
20335;DHT22;10325;51.468;5.804;2023-04-25T13:15:27;17.70;54.60
20335;DHT22;10325;51.468;5.804;2023-04-25T13:17:55;17.80;55.00
20335;DHT22;10325;51.468;5.804;2023-04-25T13:20:24;17.70;54.90
20335;DHT22;10325;51.468;5.804;2023-04-25T13:22:54;17.70;54.80
20335;DHT22;10325;51.468;5.804;2023-04-25T13:25:38;17.80;54.90
20335;DHT22;10325;51.468;5.804;2023-04-25T13:28:08;17.70;54.50
20335;DHT22;10325;51.468;5.804;2023-04-25T13:30:36;17.70;54.10
20335;DHT22;10325;51.468;5.804;2023-04-25T13:33:04;17.70;53.90
20335;DHT22;10325;51.468;5.804;2023-04-25T13:35:41;17.80;54.00
20335;DHT22;10325;51.468;5.804;2023-04-25T13:38:14;17.80;53.40
20335;DHT22;10325;51.468;5.804;2023-04-25T13:40:57;17.70;53.60
20335;DHT22;10325;51.468;5.804;2023-04-25T13:43:29;17.80;53.70
20335;DHT22;10325;51.468;5.804;2023-04-25T13:45:59;17.70;53.70
20335;DHT22;10325;51.468;5.804;2023-04-25T13:48:30;17.80;54.00
20335;DHT22;10325;51.468;5.804;2023-04-25T13:51:01;17.70;54.00
20335;DHT22;10325;51.468;5.804;2023-04-25T13:53:30;17.80;54.10
20335;DHT22;10325;51.468;5.804;2023-04-25T13:56:02;17.80;54.20
20335;DHT22;10325;51.468;5.804;2023-04-25T13:58:31;17.80;54.30
20335;DHT22;10325;51.468;5.804;2023-04-25T14:01:02;17.80;54.60
20335;DHT22;10325;51.468;5.804;2023-04-25T14:03:34;17.80;54.50
20335;DHT22;10325;51.468;5.804;2023-04-25T14:06:05;17.90;54.60
20335;DHT22;10325;51.468;5.804;2023-04-25T14:08:35;17.80;54.50
20335;DHT22;10325;51.468;5.804;2023-04-25T14:11:06;17.90;54.70
20335;DHT22;10325;51.468;5.804;2023-04-25T14:13:37;17.90;54.50
20335;DHT22;10325;51.468;5.804;2023-04-25T14:16:08;17.90;54.60
20335;DHT22;10325;51.468;5.804;2023-04-25T14:18:50;18.00;54.70
20335;DHT22;10325;51.468;5.804;2023-04-25T14:21:20;17.90;54.40
20335;DHT22;10325;51.468;5.804;2023-04-25T14:23:50;17.90;54.00
20335;DHT22;10325;51.468;5.804;2023-04-25T14:26:22;17.90;54.00
20335;DHT22;10325;51.468;5.804;2023-04-25T14:28:53;17.90;54.00
20335;DHT22;10325;51.468;5.804;2023-04-25T14:31:19;17.90;54.00
20335;DHT22;10325;51.468;5.804;2023-04-25T14:33:52;17.90;54.00
20335;DHT22;10325;51.468;5.804;2023-04-25T14:36:28;17.90;54.00
20335;DHT22;10325;51.468;5.804;2023-04-25T14:39:00;17.90;54.10
20335;DHT22;10325;51.468;5.804;2023-04-25T14:41:38;17.90;54.40
20335;DHT22;10325;51.468;5.804;2023-04-25T14:44:09;17.90;53.80
20335;DHT22;10325;51.468;5.804;2023-04-25T14:46:45;17.90;53.60
20335;DHT22;10325;51.468;5.804;2023-04-25T14:49:17;17.90;53.40
20335;DHT22;10325;51.468;5.804;2023-04-25T14:51:49;17.90;53.80
20335;DHT22;10325;51.468;5.804;2023-04-25T14:54:21;17.90;54.00
20335;DHT22;10325;51.468;5.804;2023-04-25T14:56:48;17.90;53.80
20335;DHT22;10325;51.468;5.804;2023-04-25T14:59:19;17.90;53.30
20335;DHT22;10325;51.468;5.804;2023-04-25T15:01:52;17.90;53.50
20335;DHT22;10325;51.468;5.804;2023-04-25T15:04:27;17.90;53.50
20335;DHT22;10325;51.468;5.804;2023-04-25T15:07:04;17.90;54.00
20335;DHT22;10325;51.468;5.804;2023-04-25T15:09:34;18.00;54.20
20335;DHT22;10325;51.468;5.804;2023-04-25T15:12:05;18.00;54.40
20335;DHT22;10325;51.468;5.804;2023-04-25T15:14:35;18.00;53.90
20335;DHT22;10325;51.468;5.804;2023-04-25T15:17:05;18.00;54.00
20335;DHT22;10325;51.468;5.804;2023-04-25T15:19:36;18.00;54.20
20335;DHT22;10325;51.468;5.804;2023-04-25T15:22:06;18.00;54.00
20335;DHT22;10325;51.468;5.804;2023-04-25T15:24:39;18.00;54.10
20335;DHT22;10325;51.468;5.804;2023-04-25T15:27:10;18.00;54.00
20335;DHT22;10325;51.468;5.804;2023-04-25T15:29:41;18.00;53.70
20335;DHT22;10325;51.468;5.804;2023-04-25T15:32:12;18.00;54.30
20335;DHT22;10325;51.468;5.804;2023-04-25T15:34:44;18.10;54.00
20335;DHT22;10325;51.468;5.804;2023-04-25T15:37:16;18.00;54.00
20335;DHT22;10325;51.468;5.804;2023-04-25T15:39:47;18.00;53.40
20335;DHT22;10325;51.468;5.804;2023-04-25T15:42:22;18.00;53.40
20335;DHT22;10325;51.468;5.804;2023-04-25T15:44:57;18.00;53.90
20335;DHT22;10325;51.468;5.804;2023-04-25T15:47:27;18.10;53.50
20335;DHT22;10325;51.468;5.804;2023-04-25T15:49:58;18.10;53.40
20335;DHT22;10325;51.468;5.804;2023-04-25T15:52:27;18.10;53.70
20335;DHT22;10325;51.468;5.804;2023-04-25T15:54:58;18.10;53.60
20335;DHT22;10325;51.468;5.804;2023-04-25T15:57:27;18.10;52.80
20335;DHT22;10325;51.468;5.804;2023-04-25T15:59:57;18.10;53.30
20335;DHT22;10325;51.468;5.804;2023-04-25T16:02:26;18.10;53.70